createdAt,value
2022-10-20T00:01:10.613Z,8.10
2022-10-20T00:03:40.087Z,7.63
2022-10-20T00:06:10.105Z,8.30
2022-10-20T00:11:05.223Z,8.52
2022-10-20T00:13:32.188Z,8.23
2022-10-20T00:16:00.126Z,7.50
2022-10-20T00:18:27.801Z,7.40
2022-10-20T00:20:55.235Z,8.10
2022-10-20T00:23:22.640Z,8.55
2022-10-20T00:25:49.722Z,8.40
2022-10-20T00:29:06.052Z,7.50
2022-10-20T00:31:33.524Z,7.68
2022-10-20T00:34:00.480Z,7.18
2022-10-20T00:36:27.569Z,7.53
2022-10-20T00:39:00.389Z,8.10
2022-10-20T00:41:28.250Z,7.13
2022-10-20T00:43:56.624Z,8.00
2022-10-20T00:46:27.397Z,7.13
2022-10-20T00:48:58.117Z,7.15
2022-10-20T00:51:27.968Z,6.95
2022-10-20T00:56:25.798Z,7.25
2022-10-20T00:58:52.830Z,7.53
2022-10-20T01:01:19.927Z,7.72
2022-10-20T01:03:51.691Z,7.15
2022-10-20T01:06:21.560Z,7.70
2022-10-20T01:11:29.922Z,7.45
2022-10-20T01:14:26.845Z,9.02
2022-10-20T01:17:14.762Z,7.43
2022-10-20T01:19:50.677Z,7.68
2022-10-20T01:22:37.096Z,8.00
2022-10-20T01:25:13.578Z,6.85
2022-10-20T01:27:45.090Z,7.93
2022-10-20T01:30:12.009Z,6.93
2022-10-20T01:32:52.881Z,6.85
2022-10-20T01:35:38.389Z,7.68
2022-10-20T01:38:26.349Z,7.10
2022-10-20T01:41:14.144Z,7.15
2022-10-20T01:43:43.750Z,7.22
2022-10-20T01:46:12.708Z,6.35
2022-10-20T01:48:40.768Z,6.65
2022-10-20T01:51:10.015Z,6.88
2022-10-20T01:53:37.137Z,6.70
2022-10-20T01:56:06.244Z,6.22
2022-10-20T01:59:00.300Z,6.57
2022-10-20T02:01:53.293Z,6.43
2022-10-20T02:04:30.449Z,7.15
2022-10-20T02:07:07.942Z,7.88
2022-10-20T02:09:41.498Z,6.55
2022-10-20T02:12:14.892Z,6.53
2022-10-20T02:14:43.051Z,6.30
2022-10-20T02:17:16.204Z,5.90
2022-10-20T02:19:46.242Z,6.72
2022-10-20T02:24:44.365Z,6.90
2022-10-20T02:27:20.496Z,6.13
2022-10-20T02:30:09.629Z,6.57
2022-10-20T02:32:39.386Z,6.57
2022-10-20T02:35:13.116Z,6.78
2022-10-20T02:37:40.329Z,7.88
2022-10-20T02:40:08.399Z,8.52
2022-10-20T02:42:35.882Z,5.97
2022-10-20T02:45:03.561Z,6.22
2022-10-20T02:47:30.587Z,6.75
2022-10-20T02:49:57.541Z,6.47
2022-10-20T02:52:24.698Z,6.47
2022-10-20T02:54:51.627Z,6.25
2022-10-20T02:57:18.595Z,6.05
2022-10-20T02:59:45.608Z,5.93
2022-10-20T03:02:12.773Z,6.30
2022-10-20T03:04:39.966Z,6.10
2022-10-20T03:07:07.206Z,6.20
2022-10-20T03:09:34.166Z,5.63
2022-10-20T03:12:01.326Z,8.40
2022-10-20T03:14:28.338Z,6.30
2022-10-20T03:16:55.308Z,5.97
2022-10-20T03:19:22.218Z,5.93
2022-10-20T03:21:49.849Z,5.70
2022-10-20T03:24:16.985Z,6.13
2022-10-20T03:26:44.031Z,5.68
2022-10-20T03:29:11.029Z,5.35
2022-10-20T03:31:38.027Z,5.63
2022-10-20T03:34:05.110Z,5.15
2022-10-20T03:36:32.099Z,5.45
2022-10-20T03:38:58.996Z,5.07
2022-10-20T03:41:25.970Z,5.55
2022-10-20T03:43:52.946Z,6.32
2022-10-20T03:46:19.936Z,5.63
2022-10-20T03:48:46.863Z,5.20
2022-10-20T03:51:14.571Z,4.72
2022-10-20T03:53:41.834Z,4.97
2022-10-20T03:56:10.943Z,5.43
2022-10-20T03:58:38.006Z,5.20
2022-10-20T04:01:06.598Z,5.20
2022-10-20T04:03:33.814Z,4.82
2022-10-20T04:06:00.765Z,5.38
2022-10-20T04:08:27.952Z,5.22
2022-10-20T04:10:54.992Z,5.47
2022-10-20T04:13:21.952Z,5.75
2022-10-20T04:15:48.908Z,5.28
2022-10-20T04:18:16.001Z,6.25
2022-10-20T04:20:44.507Z,7.05
2022-10-20T04:23:12.036Z,4.68
2022-10-20T04:25:45.990Z,5.28
2022-10-20T04:28:14.034Z,5.30
2022-10-20T04:30:41.196Z,6.97
2022-10-20T04:33:08.490Z,4.60
2022-10-20T04:35:35.753Z,4.53
2022-10-20T04:38:02.898Z,5.07
2022-10-20T04:40:29.970Z,6.20
2022-10-20T04:43:00.057Z,4.85
2022-10-20T04:45:27.624Z,4.50
2022-10-20T04:47:54.541Z,4.82
2022-10-20T04:50:21.502Z,4.70
2022-10-20T04:52:59.628Z,4.57
2022-10-20T04:55:26.567Z,4.53
2022-10-20T04:57:54.751Z,4.68
2022-10-20T05:00:21.701Z,4.25
2022-10-20T05:02:48.693Z,4.95
2022-10-20T05:05:15.714Z,5.07
2022-10-20T05:07:42.796Z,5.03
2022-10-20T05:10:10.104Z,4.80
2022-10-20T05:12:37.275Z,3.97
2022-10-20T05:15:04.948Z,4.78
2022-10-20T05:17:31.994Z,4.38
2022-10-20T05:19:58.951Z,4.70
2022-10-20T05:22:26.106Z,5.22
2022-10-20T05:24:53.053Z,5.32
2022-10-20T05:27:19.982Z,4.50
2022-10-20T05:29:47.082Z,4.20
2022-10-20T05:32:14.138Z,4.57
2022-10-20T05:34:41.299Z,4.97
2022-10-20T05:37:08.309Z,5.20
2022-10-20T05:39:35.345Z,5.05
2022-10-20T05:42:03.106Z,4.78
2022-10-20T05:44:30.182Z,4.40
2022-10-20T05:46:57.141Z,5.22
2022-10-20T05:49:24.172Z,5.20
2022-10-20T05:52:02.294Z,7.45
2022-10-20T05:54:35.676Z,4.90
2022-10-20T05:57:06.441Z,5.18
2022-10-20T05:59:34.051Z,5.57
2022-10-20T06:02:01.499Z,4.93
2022-10-20T06:04:28.586Z,5.43
2022-10-20T06:06:56.757Z,5.25
2022-10-20T06:09:24.980Z,4.90
2022-10-20T06:11:53.111Z,5.43
2022-10-20T06:14:22.595Z,4.68
2022-10-20T06:16:56.352Z,4.93
2022-10-20T06:19:24.672Z,5.38
2022-10-20T06:21:52.443Z,4.55
2022-10-20T06:24:20.309Z,5.13
2022-10-20T06:26:47.702Z,5.03
2022-10-20T06:29:17.879Z,4.57
2022-10-20T06:31:47.957Z,5.93
2022-10-20T06:36:48.925Z,6.00
2022-10-20T06:39:22.147Z,5.30
2022-10-20T06:41:52.835Z,4.60
2022-10-20T06:44:22.218Z,5.18
2022-10-20T06:46:52.631Z,6.35
2022-10-20T06:49:20.454Z,6.20
2022-10-20T06:51:47.574Z,5.25
2022-10-20T06:54:15.018Z,5.47
2022-10-20T06:56:42.057Z,5.07
2022-10-20T06:59:09.159Z,5.07
2022-10-20T07:01:38.971Z,5.22
2022-10-20T07:06:45.772Z,4.68
2022-10-20T07:09:16.315Z,4.80
2022-10-20T07:11:44.131Z,5.35
2022-10-20T07:14:14.084Z,4.20
2022-10-20T07:16:41.447Z,5.55
2022-10-20T07:19:08.446Z,5.88
2022-10-20T07:21:38.423Z,6.47
2022-10-20T07:24:09.682Z,5.45
2022-10-20T07:26:39.370Z,6.13
2022-10-20T07:29:07.093Z,5.03
2022-10-20T07:31:38.221Z,4.63
2022-10-20T07:34:23.422Z,4.18
2022-10-20T07:36:52.234Z,3.90
2022-10-20T07:39:19.339Z,4.85
2022-10-20T07:41:48.218Z,4.28
2022-10-20T07:44:16.134Z,4.50
2022-10-20T07:46:43.993Z,4.30
2022-10-20T07:51:58.237Z,4.80
2022-10-20T07:54:25.246Z,4.78
2022-10-20T07:56:52.226Z,4.93
2022-10-20T07:59:19.897Z,4.85
2022-10-20T08:01:47.228Z,4.90
2022-10-20T08:04:14.295Z,5.45
2022-10-20T08:06:41.555Z,4.45
2022-10-20T08:09:08.617Z,4.00
2022-10-20T08:11:36.176Z,5.47
2022-10-20T08:14:03.411Z,5.13
2022-10-20T08:16:34.147Z,6.03
2022-10-20T08:19:05.686Z,5.32
2022-10-20T08:21:33.286Z,4.43
2022-10-20T08:24:02.686Z,4.10
2022-10-20T08:26:29.890Z,5.63
2022-10-20T08:28:56.897Z,5.28
2022-10-20T08:31:24.059Z,4.65
2022-10-20T08:33:53.156Z,5.07
2022-10-20T08:36:21.297Z,4.45
2022-10-20T08:38:48.924Z,6.00
2022-10-20T08:41:34.478Z,5.20
2022-10-20T08:44:05.206Z,5.05
2022-10-20T08:46:37.871Z,4.38
2022-10-20T08:49:15.406Z,4.45
2022-10-20T08:51:42.783Z,4.90
2022-10-20T08:54:15.100Z,6.05
2022-10-20T08:56:42.616Z,5.15
2022-10-20T08:59:36.015Z,5.75
2022-10-20T09:02:15.305Z,5.28
2022-10-20T09:05:00.421Z,5.30
2022-10-20T09:07:37.746Z,5.75
2022-10-20T09:10:24.213Z,5.07
2022-10-20T09:12:52.491Z,5.00
2022-10-20T09:15:21.403Z,5.28
2022-10-20T09:18:01.209Z,4.53
2022-10-20T09:23:16.487Z,4.40
2022-10-20T09:25:53.371Z,5.60
2022-10-20T09:28:26.579Z,5.22
2022-10-20T09:30:55.165Z,5.43
2022-10-20T09:33:32.233Z,5.35
2022-10-20T09:36:06.109Z,5.30
2022-10-20T09:38:35.348Z,4.95
2022-10-20T09:41:10.583Z,5.28
2022-10-20T09:43:40.798Z,4.40
2022-10-20T09:46:11.398Z,4.65
2022-10-20T09:48:42.314Z,4.97
2022-10-20T09:51:16.120Z,5.15
2022-10-20T09:54:04.675Z,5.35
2022-10-20T09:56:40.733Z,5.88
2022-10-20T09:59:19.393Z,5.72
2022-10-20T10:01:58.778Z,5.05
2022-10-20T10:04:50.365Z,5.38
2022-10-20T10:07:26.507Z,5.25
2022-10-20T10:10:21.245Z,6.00
2022-10-20T10:12:56.881Z,5.13
2022-10-20T10:15:31.272Z,5.53
2022-10-20T10:17:59.467Z,5.57
2022-10-20T10:20:34.078Z,6.35
2022-10-20T10:23:21.528Z,7.07
2022-10-20T10:25:49.915Z,5.15
2022-10-20T10:28:32.229Z,6.07
2022-10-20T10:31:24.061Z,6.82
2022-10-20T10:34:11.474Z,5.57
2022-10-20T10:36:38.815Z,6.70
2022-10-20T10:39:12.131Z,5.35
2022-10-20T10:42:25.797Z,6.20
2022-10-20T10:45:24.847Z,5.72
2022-10-20T10:48:00.739Z,6.47
2022-10-20T10:50:37.934Z,6.70
2022-10-20T10:53:07.854Z,6.90
2022-10-20T10:58:38.823Z,7.07
2022-10-20T11:01:05.797Z,6.10
2022-10-20T11:04:00.457Z,5.20
2022-10-20T11:06:40.006Z,5.07
2022-10-20T11:09:32.422Z,5.72
2022-10-20T11:12:28.605Z,5.78
2022-10-20T11:15:26.059Z,6.22
2022-10-20T11:18:06.874Z,5.20
2022-10-20T11:20:41.248Z,5.47
2022-10-20T11:23:53.611Z,5.63
2022-10-20T11:26:36.583Z,6.43
2022-10-20T11:29:10.229Z,5.57
2022-10-20T11:31:48.559Z,6.10
2022-10-20T11:34:30.394Z,6.65
2022-10-20T11:37:06.013Z,7.00
2022-10-20T11:39:54.791Z,6.10
2022-10-20T11:42:24.886Z,6.78
2022-10-20T11:44:54.446Z,6.35
2022-10-20T11:47:35.983Z,6.85
2022-10-20T11:50:11.587Z,6.82
2022-10-20T11:52:50.462Z,6.88
2022-10-20T11:55:29.623Z,7.07
2022-10-20T11:58:15.193Z,7.15
2022-10-20T12:00:50.639Z,6.38
2022-10-20T12:03:39.071Z,6.88
2022-10-20T12:06:31.712Z,7.00
2022-10-20T12:09:07.843Z,6.97
2022-10-20T12:11:52.018Z,6.65
2022-10-20T12:14:28.930Z,7.57
2022-10-20T12:16:55.834Z,6.80
2022-10-20T12:19:30.434Z,6.88
2022-10-20T12:22:06.650Z,7.07
2022-10-20T12:24:39.633Z,7.10
2022-10-20T12:27:29.817Z,7.07
2022-10-20T12:30:35.199Z,6.50
2022-10-20T12:33:39.362Z,7.22
2022-10-20T12:36:26.499Z,6.90
2022-10-20T12:39:08.325Z,6.95
2022-10-20T12:41:55.289Z,7.95
2022-10-20T12:44:23.722Z,9.27
2022-10-20T12:47:09.750Z,8.73
2022-10-20T12:49:40.939Z,6.55
2022-10-20T12:52:21.297Z,6.38
2022-10-20T12:54:55.519Z,6.78
2022-10-20T12:57:38.705Z,7.50
2022-10-20T13:00:08.242Z,7.22
2022-10-20T13:02:55.882Z,7.50
2022-10-20T13:05:40.987Z,7.53
2022-10-20T13:08:20.061Z,6.18
2022-10-20T13:10:48.271Z,5.57
2022-10-20T13:13:18.206Z,6.88
2022-10-20T13:15:54.189Z,6.18
2022-10-20T13:18:30.747Z,8.02
2022-10-20T13:21:09.078Z,6.95
2022-10-20T13:23:41.731Z,6.35
2022-10-20T13:26:23.870Z,7.20
2022-10-20T13:28:53.723Z,6.45
2022-10-20T13:34:26.953Z,6.78
2022-10-20T13:37:12.431Z,6.95
2022-10-20T13:39:42.326Z,6.90
2022-10-20T13:42:50.900Z,6.75
2022-10-20T13:45:38.447Z,7.38
2022-10-20T13:48:05.515Z,6.43
2022-10-20T13:51:01.578Z,7.25
2022-10-20T13:53:40.575Z,6.68
2022-10-20T13:56:20.435Z,6.70
2022-10-20T13:59:05.965Z,7.20
2022-10-20T14:01:36.404Z,6.60
2022-10-20T14:04:19.402Z,7.20
2022-10-20T14:06:47.297Z,6.95
2022-10-20T14:09:25.795Z,6.95
2022-10-20T14:11:58.578Z,7.10
2022-10-20T14:14:27.626Z,6.30
2022-10-20T14:17:04.666Z,7.35
2022-10-20T14:19:33.710Z,7.03
2022-10-20T14:22:11.170Z,6.78
2022-10-20T14:24:45.438Z,7.50
2022-10-20T14:27:33.117Z,6.55
2022-10-20T14:30:04.502Z,6.43
2022-10-20T14:32:40.563Z,9.70
2022-10-20T14:35:23.805Z,6.95
2022-10-20T14:38:04.411Z,6.63
2022-10-20T14:40:34.282Z,7.13
2022-10-20T14:43:06.717Z,6.65
2022-10-20T14:45:33.900Z,7.00
2022-10-20T14:48:01.980Z,6.53
2022-10-20T14:50:36.459Z,7.43
2022-10-20T14:53:28.023Z,6.25
2022-10-20T14:55:56.412Z,7.30
2022-10-20T14:58:56.182Z,6.75
2022-10-20T15:04:24.558Z,6.88
2022-10-20T15:07:21.946Z,6.30
2022-10-20T15:09:52.073Z,6.55
2022-10-20T15:12:20.732Z,6.47
2022-10-20T15:14:51.626Z,7.03
2022-10-20T15:17:37.314Z,7.25
2022-10-20T15:20:43.624Z,6.75
2022-10-20T15:23:24.977Z,8.52
2022-10-20T15:26:13.763Z,6.35
2022-10-20T15:28:45.584Z,6.30
2022-10-20T15:31:22.569Z,7.30
2022-10-20T15:33:50.461Z,6.50
2022-10-20T15:36:29.530Z,7.88
2022-10-20T15:38:56.903Z,8.75
2022-10-20T15:41:30.205Z,7.68
2022-10-20T15:44:04.714Z,11.30
2022-10-20T15:46:31.745Z,8.60
2022-10-20T15:48:58.806Z,13.13
2022-10-20T15:51:28.593Z,8.35
2022-10-20T15:53:56.241Z,8.68
2022-10-20T15:56:23.319Z,8.80
2022-10-20T15:58:50.610Z,8.32
2022-10-20T16:01:19.170Z,8.32
2022-10-20T16:03:47.201Z,8.13
2022-10-20T16:06:16.202Z,8.10
2022-10-20T16:08:44.680Z,8.67
2022-10-20T16:11:13.318Z,8.75
2022-10-20T16:13:40.416Z,8.40
2022-10-20T16:16:09.166Z,9.48
2022-10-20T16:18:36.411Z,9.07
2022-10-20T16:21:05.268Z,8.38
2022-10-20T16:23:34.744Z,9.18
2022-10-20T16:26:05.346Z,9.20
2022-10-20T16:28:32.460Z,10.07
2022-10-20T16:31:05.387Z,9.15
2022-10-20T16:33:32.637Z,9.13
2022-10-20T16:36:02.830Z,9.40
2022-10-20T16:38:29.965Z,8.00
2022-10-20T16:40:58.858Z,7.63
2022-10-20T16:43:25.935Z,9.77
2022-10-20T16:45:53.087Z,8.63
2022-10-20T16:48:20.877Z,9.20
2022-10-20T16:50:47.832Z,8.18
2022-10-20T16:53:15.160Z,9.13
2022-10-20T16:55:51.762Z,9.25
2022-10-20T16:58:18.767Z,11.15
2022-10-20T17:00:46.055Z,10.85
2022-10-20T17:03:16.873Z,9.70
2022-10-20T17:05:46.448Z,10.35
2022-10-20T17:08:13.353Z,10.57
2022-10-20T17:10:41.243Z,10.07
2022-10-20T17:13:10.360Z,10.00
2022-10-20T17:15:37.462Z,9.60
2022-10-20T17:18:04.509Z,9.38
2022-10-20T17:20:31.539Z,9.77
2022-10-20T17:22:58.427Z,10.07
2022-10-20T17:25:25.370Z,10.40
2022-10-20T17:27:52.295Z,10.27
2022-10-20T17:30:19.242Z,10.75
2022-10-20T17:32:46.220Z,10.27
2022-10-20T17:35:14.668Z,9.32
2022-10-20T17:37:42.128Z,10.00
2022-10-20T17:40:09.684Z,9.82
2022-10-20T17:42:36.827Z,10.60
2022-10-20T17:45:04.324Z,9.77
2022-10-20T17:47:31.531Z,11.27
2022-10-20T17:49:58.581Z,9.15
2022-10-20T17:52:25.563Z,10.57
2022-10-20T17:54:52.523Z,9.80
2022-10-20T17:57:22.520Z,10.02
2022-10-20T18:02:23.897Z,10.68
2022-10-20T18:04:51.544Z,9.98
2022-10-20T18:07:18.519Z,10.20
2022-10-20T18:09:45.534Z,10.15
2022-10-20T18:12:12.621Z,10.02
2022-10-20T18:14:39.561Z,10.70
2022-10-20T18:17:06.625Z,12.27
2022-10-20T18:19:33.763Z,11.20
2022-10-20T18:22:00.811Z,12.13
2022-10-20T18:24:27.847Z,11.82
2022-10-20T18:26:54.725Z,11.73
2022-10-20T18:29:21.931Z,12.05
2022-10-20T18:31:50.099Z,15.00
2022-10-20T18:34:23.211Z,13.35
2022-10-20T18:36:51.494Z,11.48
2022-10-20T18:39:18.553Z,12.25
2022-10-20T18:41:46.511Z,11.77
2022-10-20T18:44:16.201Z,11.50
2022-10-20T18:46:44.007Z,10.65
2022-10-20T18:49:19.802Z,11.13
2022-10-20T18:51:47.816Z,10.38
2022-10-20T18:54:15.645Z,10.77
2022-10-20T18:56:43.221Z,10.85
2022-10-20T18:59:14.204Z,11.38
2022-10-20T19:01:41.399Z,11.32
2022-10-20T19:04:10.383Z,12.20
2022-10-20T19:06:41.187Z,12.97
2022-10-20T19:09:11.416Z,12.93
2022-10-20T19:11:40.149Z,12.98
2022-10-20T19:14:09.891Z,14.10
2022-10-20T19:16:38.736Z,16.65
2022-10-20T19:19:07.752Z,16.40
2022-10-20T19:21:35.625Z,16.73
2022-10-20T19:24:15.855Z,16.70
2022-10-20T19:26:56.858Z,18.58
2022-10-20T19:29:29.971Z,17.88
2022-10-20T19:31:59.831Z,18.48
2022-10-20T19:34:35.847Z,19.15
2022-10-20T19:37:03.043Z,19.38
2022-10-20T19:39:33.658Z,18.90
2022-10-20T19:42:02.398Z,17.17
2022-10-20T19:44:29.667Z,16.88
2022-10-20T19:46:56.704Z,18.13
2022-10-20T19:49:24.398Z,16.58
2022-10-20T19:51:51.737Z,16.85
2022-10-20T19:54:19.027Z,17.63
2022-10-20T19:56:46.016Z,16.65
2022-10-20T19:59:14.149Z,17.23
2022-10-20T20:01:41.185Z,16.88
2022-10-20T20:04:08.239Z,17.70
2022-10-20T20:06:35.613Z,17.60
2022-10-20T20:09:06.330Z,16.90
2022-10-20T20:11:34.800Z,16.60
2022-10-20T20:14:07.729Z,15.13
2022-10-20T20:16:34.931Z,15.27
2022-10-20T20:19:02.043Z,17.23
2022-10-20T20:21:29.095Z,15.32
2022-10-20T20:24:00.207Z,15.68
2022-10-20T20:26:30.106Z,16.58
2022-10-20T20:28:57.704Z,15.45
2022-10-20T20:31:25.439Z,14.75
2022-10-20T20:33:53.140Z,15.07
2022-10-20T20:36:21.032Z,15.45
2022-10-20T20:38:49.293Z,14.50
2022-10-20T20:41:18.343Z,15.30
2022-10-20T20:43:45.443Z,15.15
2022-10-20T20:46:23.970Z,14.32
2022-10-20T20:48:51.477Z,14.30
2022-10-20T20:51:18.910Z,14.00
2022-10-20T20:53:45.962Z,15.55
2022-10-20T20:56:19.619Z,13.88
2022-10-20T20:58:49.217Z,13.80
2022-10-20T21:01:22.239Z,14.90
2022-10-20T21:03:56.532Z,15.07
2022-10-20T21:06:33.445Z,14.32
2022-10-20T21:09:01.555Z,15.00
2022-10-20T21:11:29.944Z,14.18
2022-10-20T21:13:59.166Z,14.30
2022-10-20T21:16:27.621Z,14.15
2022-10-20T21:18:57.381Z,13.70
2022-10-20T21:21:28.519Z,14.50
2022-10-20T21:23:56.994Z,13.60
2022-10-20T21:26:24.654Z,13.90
2022-10-20T21:28:53.067Z,13.68
2022-10-20T21:31:23.451Z,15.70
2022-10-20T21:33:51.909Z,13.00
2022-10-20T21:36:20.619Z,13.43
2022-10-20T21:38:48.470Z,13.80
2022-10-20T21:41:18.892Z,14.35
2022-10-20T21:43:49.038Z,14.10
2022-10-20T21:46:21.489Z,14.23
2022-10-20T21:48:50.633Z,13.18
2022-10-20T21:51:26.766Z,13.73
2022-10-20T21:54:01.600Z,15.07
2022-10-20T21:56:29.629Z,12.75
2022-10-20T21:58:56.569Z,12.82
2022-10-20T22:01:25.453Z,12.63
2022-10-20T22:03:54.038Z,12.10
2022-10-20T22:06:23.378Z,13.35
2022-10-20T22:08:53.175Z,13.95
2022-10-20T22:11:24.383Z,14.10
2022-10-20T22:13:51.905Z,11.98
2022-10-20T22:16:21.641Z,13.77
2022-10-20T22:18:48.648Z,13.43
2022-10-20T22:21:17.736Z,12.68
2022-10-20T22:23:45.570Z,13.70
2022-10-20T22:26:12.852Z,13.32
2022-10-20T22:28:40.523Z,12.93
2022-10-20T22:31:07.895Z,12.75
2022-10-20T22:33:35.369Z,12.43
2022-10-20T22:36:03.653Z,12.45
2022-10-20T22:38:31.157Z,11.95
2022-10-20T22:41:02.215Z,12.63
2022-10-20T22:43:30.720Z,12.00
2022-10-20T22:45:58.319Z,11.98
2022-10-20T22:48:25.646Z,12.70
2022-10-20T22:50:52.890Z,12.35
2022-10-20T22:53:20.015Z,12.38
2022-10-20T22:55:47.455Z,11.88
2022-10-20T22:58:14.503Z,11.45
2022-10-20T23:00:44.010Z,12.07
2022-10-20T23:03:11.055Z,12.15
2022-10-20T23:05:38.094Z,14.48
2022-10-20T23:08:05.909Z,13.88
2022-10-20T23:10:33.042Z,11.65
2022-10-20T23:13:00.002Z,12.00
2022-10-20T23:15:27.557Z,12.15
2022-10-20T23:17:55.597Z,13.30
2022-10-20T23:20:22.506Z,12.82
2022-10-20T23:22:49.506Z,12.55
2022-10-20T23:25:16.589Z,11.45
2022-10-20T23:27:43.685Z,13.73
2022-10-20T23:30:10.879Z,11.75
2022-10-20T23:32:37.871Z,12.63
2022-10-20T23:35:05.250Z,11.43
2022-10-20T23:37:33.003Z,12.93
2022-10-20T23:39:59.900Z,11.52
2022-10-20T23:42:26.838Z,11.20
2022-10-20T23:44:53.766Z,12.00
2022-10-20T23:47:21.009Z,11.65
2022-10-20T23:49:48.615Z,10.70
2022-10-20T23:52:15.608Z,11.95
2022-10-20T23:54:42.572Z,11.02
2022-10-20T23:57:09.605Z,12.73
2022-10-20T23:59:36.521Z,12.82
